• Join FlightAware (Why Join?)
  • Login
  • US Flag 
11:25AM EDT


 

Airport Tracker/Info


-or-


 

Live Flight TrackerFlight Track Log ✈ AAY846 ✈ 30-Dec-2013 ✈ KPIE - KPIA

Flight Track Log - Related Links

Times and Time Zones

All times are in EST time to prevent confusion due to time zone crossing. See the AAY846 flight status page for this flight to view local times or setup timezone preferences in your user account.

Time Position Orientation Groundspeed Altitude Reporting Facility
EST Latitude Longitude Course Direction KTS MPH feet Rate Location/Type
10:03AM 27.9333 -82.7000 338° Northwest 167 192 1,100  Level Tampa TRACON
10:05AM 28.0267 -82.6811 10° North 198 228 4,400 2,220 Climbing Jacksonville Center
10:06AM 28.1017 -82.6950 351° North 235 270 7,400 2,760 Climbing Jacksonville Center
10:07AM 28.1831 -82.7067 353° North 265 305 10,000 2,040 Climbing Jacksonville Center
10:08AM 28.2772 -82.7253 350° North 303 349 11,500 1,860 Climbing Jacksonville Center
10:09AM 28.5366 -82.9830 338° Northwest  Level Estimated
10:09AM 28.3814 -82.7558 346° North 351 404 13,800  Level Jacksonville Center
10:10AM 28.4817 -82.8100 335° Northwest 383 441 16,200 2,220 Climbing Jacksonville Center
10:11AM 28.5861 -82.8689 334° Northwest 402 463 18,300 1,920 Climbing Jacksonville Center
10:12AM 28.6736 -82.9114 337° Northwest 413 475 20,100 1,800 Climbing Jacksonville Center
10:13AM 28.7947 -82.9731 336° Northwest 424 488 22,000 1,680 Climbing Jacksonville Center
10:14AM 28.9094 -83.0300 337° Northwest 438 504 23,500 1,800 Climbing Jacksonville Center
10:15AM 29.0408 -83.0897 338° Northwest 449 517 25,600 2,100 Climbing Jacksonville Center
10:16AM 29.1556 -83.1447 337° Northwest 449 517 27,700 1,800 Climbing Jacksonville Center
10:17AM 29.2725 -83.1997 338° Northwest 454 522 29,300 1,380 Climbing Jacksonville Center
10:18AM 29.3869 -83.2572 336° Northwest 454 522 30,500 1,200 Climbing Jacksonville Center
10:19AM 29.4975 -83.3125 336° Northwest 449 517 31,800 720 Climbing Jacksonville Center
10:20AM 29.6039 -83.3822 330° Northwest 438 504 32,000 660 Climbing Jacksonville Center
10:21AM 29.7119 -83.4425 334° Northwest 433 498 33,200 900 Climbing Jacksonville Center
10:22AM 29.8161 -83.5125 330° Northwest 427 491 33,900 300 Climbing Jacksonville Center
10:23AM 29.9244 -83.5708 335° Northwest 427 491 33,900  Level Jacksonville Center
10:24AM 30.0347 -83.6267 336° Northwest 427 491 33,900  Level Jacksonville Center
10:25AM 30.1408 -83.6828 335° Northwest 422 486 33,900  Level Jacksonville Center
10:26AM 30.2533 -83.7367 338° Northwest 422 486 33,900  Level Jacksonville Center
10:27AM 30.3636 -83.7906 337° Northwest 422 486 33,900  Level Jacksonville Center
10:28AM 30.4758 -83.8447 337° Northwest 422 486 33,900  Level Jacksonville Center
10:29AM 30.5675 -83.8986 333° Northwest 422 486 34,000  Climbing Jacksonville Center
10:30AM 30.6775 -83.9506 338° Northwest 422 486 34,000  Level Jacksonville Center
10:31AM 30.7900 -84.0075 337° Northwest 422 486 34,000  Level Jacksonville Center
10:32AM 30.8981 -84.0619 337° Northwest 422 486 34,000  Level Jacksonville Center
10:33AM 31.0061 -84.1167 337° Northwest 422 486 34,000  Level Jacksonville Center
10:34AM 31.1183 -84.1739 336° Northwest 422 486 34,000  Level Jacksonville Center
10:35AM 31.2261 -84.2289 336° Northwest 422 486 34,000  Level Jacksonville Center
10:36AM 31.3364 -84.2864 336° Northwest 422 486 34,000  Level Jacksonville Center
10:37AM 31.4464 -84.3417 337° Northwest 422 486 34,000  Level Jacksonville Center
10:38AM 31.5542 -84.3992 336° Northwest 422 486 34,000  Level Jacksonville Center
10:40AM 31.7333 -84.4881 337° Northwest 424 488 34,000  Level Atlanta Center
10:41AM 31.8417 -84.5450 336° Northwest 424 488 34,000  Level Atlanta Center
10:42AM 31.9519 -84.6019 336° Northwest 424 488 34,000  Level Atlanta Center
10:43AM 32.0603 -84.6589 336° Northwest 418 481 34,000  Level Atlanta Center
10:44AM 32.1642 -84.7161 335° Northwest 418 481 34,000  Level Atlanta Center
10:45AM 32.2747 -84.7683 338° Northwest 418 481 34,000  Level Atlanta Center
10:46AM 32.3786 -84.8258 335° Northwest 418 481 34,000  Level Atlanta Center
10:47AM 32.4869 -84.8761 339° North 413 475 34,000  Level Atlanta Center
10:48AM 32.5950 -84.9339 336° Northwest 424 488 34,000  Level Atlanta Center
10:49AM 32.7094 -84.9917 337° Northwest 427 491 34,000  Level Atlanta Center
10:50AM 32.8131 -85.0597 331° Northwest 421 484 34,000  Level Atlanta Center
10:51AM 32.9233 -85.1128 338° Northwest 437 503 34,000  Level Atlanta Center
10:52AM 33.0272 -85.1611 339° North 428 493 34,000  Level Atlanta Center
10:53AM 33.1331 -85.2247 333° Northwest 423 487 34,000  Level Atlanta Center
10:54AM 33.2389 -85.2831 335° Northwest 417 480 34,000  Level Atlanta Center
10:55AM 33.3428 -85.3369 337° Northwest 410 472 34,000  Level Atlanta Center
10:56AM 33.4361 -85.3856 337° Northwest 405 466 34,000  Level Atlanta Center
10:57AM 33.5419 -85.4419 336° Northwest 405 466 34,000  Level Atlanta Center
10:58AM 33.6478 -85.5011 335° Northwest 411 473 34,000  Level Atlanta Center
10:59AM 33.7536 -85.5553 337° Northwest 411 473 34,000  Level Atlanta Center
11:00AM 33.8553 -85.6122 335° Northwest 411 473 34,000  Level Atlanta Center
11:01AM 33.9733 -85.6744 336° Northwest 411 473 34,000  Level Atlanta Center
11:02AM 34.0769 -85.7317 335° Northwest 417 480 34,000  Level Atlanta Center
11:03AM 34.1806 -85.7864 336° Northwest 417 480 34,000  Level Atlanta Center
11:04AM 34.2819 -85.8414 336° Northwest 404 465 34,000  Level Atlanta Center
11:05AM 34.3875 -85.8989 336° Northwest 404 465 34,000  Level Atlanta Center
11:06AM 34.4931 -85.9567 336° Northwest 404 465 34,000  Level Atlanta Center
11:07AM 34.5986 -86.0147 336° Northwest 409 471 34,000  Level Atlanta Center
11:08AM 34.7022 -86.0703 336° Northwest 409 471 34,000  Level Atlanta Center
11:09AM 34.8053 -86.1333 333° Northwest 409 471 34,000  Level Atlanta Center
11:10AM 34.9108 -86.1892 337° Northwest 409 471 34,000  Level Atlanta Center
11:11AM 35.0119 -86.2475 335° Northwest 409 471 34,000  Level Atlanta Center
11:12AM 35.1175 -86.3036 337° Northwest 409 471 34,000  Level Atlanta Center
11:14AM 35.3286 -86.4233 335° Northwest 414 476 34,000  Level Memphis Center
11:15AM 35.4333 -86.4872 334° Northwest 414 476 34,000  Level Memphis Center
11:16AM 35.5406 -86.5450 336° Northwest 417 480 34,000  Level Memphis Center
11:17AM 35.6450 -86.6064 334° Northwest 416 479 34,000  Level Memphis Center
11:18AM 35.7525 -86.6653 336° Northwest 418 481 34,000  Level Memphis Center
11:19AM 35.8553 -86.7281 334° Northwest 411 473 34,000  Level Memphis Center
11:20AM 35.9636 -86.7872 336° Northwest 419 482 34,000  Level Memphis Center
11:21AM 36.0669 -86.8503 334° Northwest 412 474 34,000  Level Memphis Center
11:22AM 36.1919 -86.9211 335° Northwest 415 478 34,000  Level Memphis Center
11:23AM 36.3008 -86.9836 335° Northwest 416 479 34,000  Level Memphis Center
11:24AM 36.4086 -87.0464 335° Northwest 416 479 34,000  Level Memphis Center
11:25AM 36.5150 -87.1078 335° Northwest 413 475 34,000  Level Memphis Center
11:26AM 36.6214 -87.1700 335° Northwest 418 481 34,000  Level Memphis Center
11:27AM 36.7239 -87.2297 335° Northwest 406 467 34,000  Level Memphis Center
11:28AM 36.8258 -87.2900 335° Northwest 403 464 34,000  Level Memphis Center
11:29AM 36.9258 -87.3519 334° Northwest 397 457 34,000  Level Memphis Center
11:30AM 37.0303 -87.4125 335° Northwest 406 467 34,000  Level Memphis Center
11:31AM 37.1308 -87.4750 334° Northwest 401 461 34,000  Level Memphis Center
11:32AM 37.2194 -87.5219 337° Northwest 409 471 34,000  Level Indianapolis Center
11:33AM 37.3200 -87.5847 334° Northwest 401 461 34,000  Level Indianapolis Center
11:34AM 37.4272 -87.6436 336° Northwest 413 475 34,000  Level Indianapolis Center
11:35AM 37.5286 -87.7094 333° Northwest 409 471 34,000  Level Indianapolis Center
11:36AM 37.6344 -87.7717 335° Northwest 412 474 34,000  Level Indianapolis Center
11:37AM 37.7369 -87.8358 334° Northwest 410 472 34,000  Level Indianapolis Center
11:38AM 37.8547 -87.9097 334° Northwest 407 468 34,000  Level Indianapolis Center
11:39AM 37.9589 -87.9711 335° Northwest 410 472 34,000  Level Indianapolis Center
11:40AM 38.0642 -88.0369 334° Northwest 416 479 34,000  Level Indianapolis Center
11:41AM 38.1686 -88.0961 336° Northwest 411 473 34,000  Level Indianapolis Center
11:42AM 38.2733 -88.1644 333° Northwest 417 480 34,000  Level Indianapolis Center
11:43AM 38.3144 -88.1894 334° Northwest 409 471 34,000  Level Kansas City Center
11:44AM 38.4431 -88.2644 335° Northwest 413 475 34,000  Level Kansas City Center
11:45AM 38.5444 -88.3336 332° Northwest 415 478 34,000  Level Kansas City Center
11:46AM 38.6464 -88.3989 333° Northwest 410 472 34,000  Level Kansas City Center
11:47AM 38.7503 -88.4658 333° Northwest 412 474 34,000 -300 Level Kansas City Center
11:48AM 38.8600 -88.5325 335° Northwest 424 488 33,500 -1,140 Descending Kansas City Center
11:49AM 38.9656 -88.6011 333° Northwest 425 489 31,700 -1,860 Descending Kansas City Center
11:50AM 39.0642 -88.6647 333° Northwest 427 491 29,700 -2,220 Descending Kansas City Center
11:51AM 39.1939 -88.7411 335° Northwest 428 493 27,200 -2,280 Descending Kansas City Center
11:52AM 39.2975 -88.8061 334° Northwest 422 486 25,000 -2,100 Descending Kansas City Center
11:53AM 39.3944 -88.8664 334° Northwest 400 460 22,900 -1,740 Descending Kansas City Center
11:54AM 39.4928 -88.9283 334° Northwest 385 443 21,500 -1,500 Descending Kansas City Center
11:55AM 39.5789 -88.9919 330° Northwest 359 413 19,900 -1,620 Descending Kansas City Center
11:56AM 39.6692 -89.0386 338° Northwest 353 406 18,300 -1,320 Descending Kansas City Center
11:57AM 39.7531 -89.0986 331° Northwest 345 397 17,200 -1,380 Descending Kansas City Center
11:58AM 39.8511 -89.1600 334° Northwest 330 380 15,500 -1,440 Descending Kansas City Center
11:59AM 39.9308 -89.2133 333° Northwest 324 373 14,300 -1,200 Descending Kansas City Center
12:00PM 40.0122 -89.2633 335° Northwest 323 372 13,100 -1,260 Descending Kansas City Center
12:01PM 40.0892 -89.3172 332° Northwest 316 364 11,800 -1,020 Descending Kansas City Center
12:02PM 40.1678 -89.3558 339° North 307 353 11,000 -1,020 Descending Kansas City Center
12:03PM 40.2336 -89.3964 335° Northwest 271 312 9,800 -1,500 Descending Kansas City Center
12:04PM 40.3111 -89.4344 339° North 253 291 8,000 -1,800 Descending Kansas City Center
12:05PM 40.3728 -89.4697 336° Northwest 244 281 6,200 -1,680 Descending Kansas City Center
12:06PM 40.4331 -89.4992 340° North 239 275 4,600 -1,260 Descending Kansas City Center
12:07PM 40.4811 -89.5278 336° Northwest 213 245 3,600 -900 Descending Kansas City Center
12:08PM 40.5247 -89.5489 340° North 188 216 2,800 -600 Descending Kansas City Center
12:10PM 40.5611 -89.5717 335° Northwest 164 189 2,400 -240 Descending Kansas City Center
12:11PM 40.5994 -89.5894 341° North 152 175 2,400 -300 Level Kansas City Center
12:12PM 40.6275 -89.6325 311° West 138 159 1,800 -720 Descending Kansas City Center
12:13PM 40.6494 -89.6708 307° West 132 152 1,000 -540 Descending Kansas City Center
12:14PM 40.6694 -89.7056 307° West 132 152 700 -180 Descending Kansas City Center
12:15PM 40.6711 -89.7042 32° Northeast 87 100 700  Level Chicago Center